createdAt,value
2023-11-30T00:00:02.277Z,21.9
2023-11-30T00:02:02.378Z,21.8
2023-11-30T00:04:02.153Z,23.3
2023-11-30T00:06:02.257Z,22.5
2023-11-30T00:08:02.105Z,22.7
2023-11-30T00:10:02.381Z,22.4
2023-11-30T00:12:03.857Z,21.8
2023-11-30T00:14:02.860Z,21.2
2023-11-30T00:16:02.092Z,20.1
2023-11-30T00:18:02.926Z,19.8
2023-11-30T00:20:02.146Z,20.2
2023-11-30T00:22:02.432Z,21.1
2023-11-30T00:24:02.217Z,21.7
2023-11-30T00:26:02.161Z,19.9
2023-11-30T00:28:02.046Z,19.8
2023-11-30T00:30:02.256Z,21.2
2023-11-30T00:32:02.056Z,20.9
2023-11-30T00:34:02.475Z,20.6
2023-11-30T00:36:02.837Z,20.3
2023-11-30T00:38:02.137Z,20.7
2023-11-30T00:40:02.082Z,20.9
2023-11-30T00:42:02.203Z,21.1
2023-11-30T00:44:02.094Z,20.7
2023-11-30T00:46:09.474Z,20.6
2023-11-30T00:48:02.203Z,21.4
2023-11-30T00:50:02.156Z,20.8
2023-11-30T00:52:02.132Z,21.4
2023-11-30T00:54:02.328Z,22.0
2023-11-30T00:56:02.077Z,20.5
2023-11-30T00:58:03.129Z,21.9
2023-11-30T01:00:04.388Z,21.1
2023-11-30T01:02:02.125Z,21.5
2023-11-30T01:04:02.180Z,20.1
2023-11-30T01:06:02.195Z,20.6
2023-11-30T01:08:02.188Z,21.4
2023-11-30T01:10:03.546Z,21.0
2023-11-30T01:12:02.126Z,22.8
2023-11-30T01:14:04.109Z,23.5
2023-11-30T01:16:02.382Z,22.3
2023-11-30T01:18:04.752Z,23.5
2023-11-30T01:20:02.773Z,22.7
2023-11-30T01:22:05.729Z,23.6
2023-11-30T01:24:02.119Z,22.4
2023-11-30T01:26:03.053Z,21.7
2023-11-30T01:28:02.209Z,22.4
2023-11-30T01:30:02.145Z,22.2
2023-11-30T01:32:02.427Z,21.2
2023-11-30T01:34:02.332Z,22.0
2023-11-30T01:36:02.056Z,21.2
2023-11-30T01:38:02.658Z,21.6
2023-11-30T01:40:02.115Z,21.7
2023-11-30T01:42:05.566Z,22.8
2023-11-30T01:44:02.089Z,22.7
2023-11-30T01:46:04.709Z,21.5
2023-11-30T01:48:02.304Z,21.5
2023-11-30T01:50:03.468Z,22.3
2023-11-30T01:52:03.481Z,21.8
2023-11-30T01:54:04.034Z,23.1
2023-11-30T01:56:03.088Z,20.9
2023-11-30T01:58:03.967Z,21.2
2023-11-30T02:00:02.235Z,20.7
2023-11-30T02:02:02.676Z,20.8
2023-11-30T02:04:13.029Z,20.4
2023-11-30T02:06:02.633Z,20.7
2023-11-30T02:08:03.127Z,20.6
2023-11-30T02:10:02.639Z,21.2
2023-11-30T02:12:02.742Z,20.1
2023-11-30T02:14:03.788Z,21.5
2023-11-30T02:16:02.294Z,21.5
2023-11-30T02:18:02.849Z,20.1
2023-11-30T02:20:03.412Z,21.4
2023-11-30T02:22:02.632Z,21.2
2023-11-30T02:24:02.572Z,21.6
2023-11-30T02:26:02.127Z,23.3
2023-11-30T02:28:02.732Z,24.9
2023-11-30T02:30:02.145Z,24.1
2023-11-30T02:32:02.794Z,21.7
2023-11-30T02:34:02.961Z,20.8
2023-11-30T02:36:02.704Z,20.8
2023-11-30T02:38:02.712Z,21.7
2023-11-30T02:40:02.120Z,21.9
2023-11-30T02:42:02.152Z,23.0
2023-11-30T02:44:02.237Z,24.4
2023-11-30T02:46:02.941Z,23.2
2023-11-30T02:48:02.562Z,24.2
2023-11-30T02:50:02.531Z,23.5
2023-11-30T02:52:02.785Z,22.1
2023-11-30T02:54:02.174Z,23.0
2023-11-30T02:56:02.883Z,22.3
2023-11-30T02:58:02.460Z,23.2
2023-11-30T03:00:03.212Z,22.5
2023-11-30T03:02:03.441Z,22.1
2023-11-30T03:04:02.165Z,22.4
2023-11-30T03:06:02.119Z,21.6
2023-11-30T03:08:02.359Z,21.5
2023-11-30T03:10:02.443Z,20.8
2023-11-30T03:12:02.162Z,21.0
2023-11-30T03:14:02.781Z,20.4
2023-11-30T03:16:02.678Z,21.2
2023-11-30T03:18:02.151Z,20.8
2023-11-30T03:20:02.810Z,20.5
2023-11-30T03:22:02.691Z,21.2
2023-11-30T03:24:02.236Z,21.3
2023-11-30T03:26:02.063Z,20.9
2023-11-30T03:28:02.524Z,20.5
2023-11-30T03:30:03.211Z,21.2
2023-11-30T03:32:02.373Z,21.7
2023-11-30T03:34:03.172Z,19.8
2023-11-30T03:36:02.143Z,19.7
2023-11-30T03:38:02.127Z,20.7
2023-11-30T03:40:02.219Z,19.1
2023-11-30T03:42:02.774Z,20.3
2023-11-30T03:44:02.802Z,20.3
2023-11-30T03:46:02.314Z,20.3
2023-11-30T03:48:02.154Z,20.2
2023-11-30T03:50:02.162Z,20.4
2023-11-30T03:52:02.120Z,20.3
2023-11-30T03:54:02.467Z,21.4
2023-11-30T03:56:02.835Z,21.2
2023-11-30T03:58:02.851Z,20.8
2023-11-30T04:00:04.149Z,21.8
2023-11-30T04:02:02.192Z,21.1
2023-11-30T04:04:02.216Z,21.9
2023-11-30T04:06:02.197Z,22.6
2023-11-30T04:08:02.152Z,22.2
2023-11-30T04:10:02.329Z,23.8
2023-11-30T04:12:02.118Z,23.4
2023-11-30T04:14:06.655Z,24.7
2023-11-30T04:16:02.150Z,24.2
2023-11-30T04:18:02.262Z,25.3
2023-11-30T04:20:03.646Z,24.5
2023-11-30T04:22:04.107Z,25.4
2023-11-30T04:24:02.102Z,24.4
2023-11-30T04:26:03.127Z,24.2
2023-11-30T04:28:02.134Z,23.9
2023-11-30T04:30:02.254Z,23.8
2023-11-30T04:32:03.336Z,23.2
2023-11-30T04:34:02.293Z,23.2
2023-11-30T04:36:04.411Z,22.6
2023-11-30T04:38:02.227Z,22.7
2023-11-30T04:40:02.211Z,22.7
2023-11-30T04:42:03.042Z,22.2
2023-11-30T04:44:02.865Z,23.2
2023-11-30T04:46:02.303Z,22.2
2023-11-30T04:48:02.593Z,22.8
2023-11-30T04:50:02.853Z,23.3
2023-11-30T04:52:02.794Z,23.3
2023-11-30T04:54:02.661Z,24.4
2023-11-30T04:56:02.253Z,23.7
2023-11-30T04:58:02.449Z,23.9
2023-11-30T05:00:02.848Z,24.1
2023-11-30T05:02:02.237Z,24.0
2023-11-30T05:04:03.203Z,23.3
2023-11-30T05:06:03.273Z,23.3
2023-11-30T05:08:02.075Z,25.3
2023-11-30T05:10:02.247Z,23.2
2023-11-30T05:12:02.138Z,24.4
2023-11-30T05:14:02.197Z,23.9
2023-11-30T05:16:02.186Z,23.1
2023-11-30T05:18:02.698Z,22.7
2023-11-30T05:20:03.910Z,23.3
2023-11-30T05:22:02.909Z,23.9
2023-11-30T05:24:02.453Z,21.9
2023-11-30T05:26:02.686Z,21.7
2023-11-30T05:28:03.156Z,22.4
2023-11-30T05:30:03.931Z,22.2
2023-11-30T05:32:02.075Z,21.7
2023-11-30T05:34:03.233Z,21.9
2023-11-30T05:36:02.142Z,21.9
2023-11-30T05:38:03.578Z,21.2
2023-11-30T05:40:03.512Z,21.9
2023-11-30T05:42:02.111Z,22.8
2023-11-30T05:44:03.941Z,22.5
2023-11-30T05:46:02.296Z,22.5
2023-11-30T05:48:02.151Z,21.9
2023-11-30T05:50:03.415Z,21.9
2023-11-30T05:52:03.261Z,22.7
2023-11-30T05:54:02.285Z,22.0
2023-11-30T05:56:02.098Z,21.7
2023-11-30T05:58:02.846Z,22.7
2023-11-30T06:00:04.430Z,21.7
2023-11-30T06:02:02.352Z,22.1
2023-11-30T06:04:03.005Z,21.6
2023-11-30T06:06:02.167Z,23.1
2023-11-30T06:08:02.126Z,22.9
2023-11-30T06:10:02.962Z,22.5
2023-11-30T06:12:02.063Z,22.7
2023-11-30T06:14:02.319Z,22.0
2023-11-30T06:16:02.541Z,21.9
2023-11-30T06:18:02.208Z,22.5
2023-11-30T06:20:04.915Z,21.9
2023-11-30T06:22:03.311Z,21.9
2023-11-30T06:24:02.109Z,21.9
2023-11-30T06:26:02.212Z,21.6
2023-11-30T06:28:02.129Z,21.8
2023-11-30T06:30:03.397Z,22.1
2023-11-30T06:32:03.053Z,21.7
2023-11-30T06:34:02.299Z,21.8
2023-11-30T06:36:04.675Z,21.4
2023-11-30T06:38:02.748Z,19.7
2023-11-30T06:40:02.195Z,20.1
2023-11-30T06:42:02.161Z,20.7
2023-11-30T06:44:02.649Z,21.0
2023-11-30T06:46:02.693Z,21.1
2023-11-30T06:48:02.185Z,22.1
2023-11-30T06:50:03.901Z,21.6
2023-11-30T06:52:05.188Z,21.4
2023-11-30T06:54:02.288Z,21.8
2023-11-30T06:56:02.079Z,22.0
2023-11-30T06:58:02.407Z,21.4
2023-11-30T07:00:04.010Z,21.5
2023-11-30T07:02:02.257Z,21.2
2023-11-30T07:04:02.390Z,21.0
2023-11-30T07:06:03.180Z,22.4
2023-11-30T07:08:02.082Z,21.2
2023-11-30T07:10:02.390Z,22.2
2023-11-30T07:12:02.747Z,22.3
2023-11-30T07:14:02.726Z,22.9
2023-11-30T07:16:02.289Z,23.7
2023-11-30T07:18:02.649Z,25.7
2023-11-30T07:20:02.186Z,26.7
2023-11-30T07:22:03.035Z,26.1
2023-11-30T07:24:02.096Z,25.4
2023-11-30T07:26:03.490Z,24.4
2023-11-30T07:28:02.119Z,24.4
2023-11-30T07:30:02.484Z,24.5
2023-11-30T07:32:02.109Z,23.6
2023-11-30T07:34:03.614Z,22.6
2023-11-30T07:36:02.701Z,23.4
2023-11-30T07:38:03.252Z,22.4
2023-11-30T07:40:02.307Z,21.8
2023-11-30T07:42:03.423Z,21.0
2023-11-30T07:44:02.947Z,21.8
2023-11-30T07:46:03.307Z,21.1
2023-11-30T07:48:03.822Z,22.4
2023-11-30T07:50:02.254Z,22.3
2023-11-30T07:52:02.080Z,21.4
2023-11-30T07:54:02.152Z,22.4
2023-11-30T07:56:02.083Z,22.9
2023-11-30T07:58:02.355Z,22.4
2023-11-30T08:00:03.780Z,22.0
2023-11-30T08:02:02.409Z,23.6
2023-11-30T08:04:02.416Z,22.3
2023-11-30T08:06:02.871Z,21.5
2023-11-30T08:08:02.163Z,21.4
2023-11-30T08:10:02.264Z,22.6
2023-11-30T08:12:02.258Z,26.2
2023-11-30T08:14:02.338Z,66.8
2023-11-30T08:16:02.981Z,45.3
2023-11-30T08:18:02.360Z,52.4
2023-11-30T08:20:02.805Z,35.6
2023-11-30T08:22:02.769Z,29.0
2023-11-30T08:24:02.271Z,25.9
2023-11-30T08:26:04.318Z,23.1
2023-11-30T08:28:04.969Z,24.6
2023-11-30T08:30:02.256Z,23.8
2023-11-30T08:32:03.458Z,22.7
2023-11-30T08:34:04.173Z,23.0
2023-11-30T08:36:03.368Z,24.9
2023-11-30T08:38:02.260Z,25.2
2023-11-30T08:40:02.434Z,24.8
2023-11-30T08:42:02.438Z,25.4
2023-11-30T08:44:02.084Z,24.5
2023-11-30T08:46:03.004Z,23.8
2023-11-30T08:48:02.904Z,24.1
2023-11-30T08:50:04.618Z,23.7
2023-11-30T08:52:02.046Z,22.6
2023-11-30T08:54:02.181Z,22.8
2023-11-30T08:56:02.636Z,22.9
2023-11-30T08:58:02.452Z,21.5
2023-11-30T09:00:06.353Z,21.5
2023-11-30T09:02:02.954Z,22.9
2023-11-30T09:04:04.580Z,22.4
2023-11-30T09:06:03.538Z,23.8
2023-11-30T09:08:02.785Z,21.6
2023-11-30T09:10:03.353Z,21.7
2023-11-30T09:12:02.943Z,20.8
2023-11-30T09:14:02.398Z,21.3
2023-11-30T09:16:03.321Z,23.3
2023-11-30T09:18:03.958Z,22.2
2023-11-30T09:20:02.091Z,22.2
2023-11-30T09:22:02.667Z,23.2
2023-11-30T09:24:04.292Z,23.2
2023-11-30T09:26:06.351Z,24.9
2023-11-30T09:28:03.222Z,24.1
2023-11-30T09:30:02.144Z,22.7
2023-11-30T09:32:03.668Z,21.8
2023-11-30T09:34:02.510Z,21.7
2023-11-30T09:36:04.032Z,22.2
2023-11-30T09:38:02.170Z,22.4
2023-11-30T09:40:02.133Z,22.3
2023-11-30T09:42:04.319Z,22.2
2023-11-30T09:44:02.162Z,22.6
2023-11-30T09:46:03.229Z,23.9
2023-11-30T09:48:02.780Z,23.3
2023-11-30T09:50:02.116Z,24.5
2023-11-30T09:52:02.453Z,23.8
2023-11-30T09:54:02.120Z,23.9
2023-11-30T09:56:02.097Z,25.0
2023-11-30T09:58:04.251Z,24.2
2023-11-30T10:00:02.157Z,23.8
2023-11-30T10:02:05.521Z,23.3
2023-11-30T10:04:14.194Z,23.7
2023-11-30T10:06:02.156Z,22.8
2023-11-30T10:08:02.172Z,23.8
2023-11-30T10:10:04.303Z,23.6
2023-11-30T10:12:02.921Z,22.4
2023-11-30T10:14:02.120Z,23.4
2023-11-30T10:16:02.566Z,24.4
2023-11-30T10:18:06.157Z,22.4
2023-11-30T10:20:04.841Z,22.5
2023-11-30T10:22:03.786Z,21.6
2023-11-30T10:24:02.603Z,23.4
2023-11-30T10:26:04.145Z,24.7
2023-11-30T10:28:04.027Z,24.7
2023-11-30T10:30:04.390Z,24.4
2023-11-30T10:32:07.133Z,22.9
2023-11-30T10:34:07.954Z,23.1
2023-11-30T10:36:06.008Z,22.3
2023-11-30T10:38:05.704Z,23.1
2023-11-30T10:40:10.695Z,22.1
2023-11-30T10:42:09.171Z,21.9
2023-11-30T10:44:02.961Z,21.9
2023-11-30T10:46:05.683Z,21.5
2023-11-30T10:48:03.046Z,21.8
2023-11-30T10:50:06.479Z,23.1
2023-11-30T10:52:04.483Z,23.6
2023-11-30T10:54:08.010Z,23.1
2023-11-30T10:56:06.427Z,23.0
2023-11-30T10:58:07.803Z,22.9
2023-11-30T11:00:02.387Z,23.6
2023-11-30T11:02:05.854Z,23.2
2023-11-30T11:04:03.252Z,23.3
2023-11-30T11:06:06.092Z,21.7
2023-11-30T11:08:02.903Z,21.6
2023-11-30T11:10:06.686Z,21.9
2023-11-30T11:12:03.181Z,21.6
2023-11-30T11:14:02.123Z,21.9
2023-11-30T11:16:03.841Z,23.0
2023-11-30T11:18:04.223Z,21.9
2023-11-30T11:20:02.124Z,20.4
2023-11-30T11:22:02.288Z,22.2
2023-11-30T11:24:04.069Z,21.0
2023-11-30T11:26:03.480Z,21.6
2023-11-30T11:28:02.487Z,20.4
2023-11-30T11:30:05.782Z,21.2
2023-11-30T11:32:04.271Z,20.6
2023-11-30T11:34:02.997Z,20.3
2023-11-30T11:36:03.206Z,20.1
2023-11-30T11:38:02.115Z,20.1
2023-11-30T11:40:03.331Z,20.6
2023-11-30T11:42:02.926Z,21.4
2023-11-30T11:44:02.256Z,20.9
2023-11-30T11:46:02.478Z,21.3
2023-11-30T11:48:03.740Z,22.0
2023-11-30T11:50:03.727Z,21.2
2023-11-30T11:52:02.310Z,20.9
2023-11-30T11:54:02.074Z,21.0
2023-11-30T11:56:02.932Z,21.5
2023-11-30T11:58:02.376Z,21.9
2023-11-30T12:00:02.355Z,21.2
2023-11-30T12:02:02.187Z,20.8
2023-11-30T12:04:02.333Z,21.2
2023-11-30T12:06:02.141Z,21.0
2023-11-30T12:08:03.611Z,20.5
2023-11-30T12:10:04.939Z,20.5
2023-11-30T12:12:02.053Z,20.9
2023-11-30T12:14:02.150Z,21.1
2023-11-30T12:16:02.490Z,20.0
2023-11-30T12:18:02.584Z,20.5
2023-11-30T12:20:02.177Z,20.6
2023-11-30T12:22:02.371Z,19.6
2023-11-30T12:24:02.778Z,20.7
2023-11-30T12:26:02.255Z,21.0
2023-11-30T12:28:02.084Z,20.6
2023-11-30T12:30:02.065Z,20.5
2023-11-30T12:32:02.745Z,20.9
2023-11-30T12:34:02.421Z,20.8
2023-11-30T12:36:02.823Z,20.2
2023-11-30T12:38:02.270Z,20.6
2023-11-30T12:40:02.183Z,20.2
2023-11-30T12:42:03.550Z,20.4
2023-11-30T12:44:04.924Z,19.5
2023-11-30T12:46:02.485Z,19.9
2023-11-30T12:48:02.310Z,19.8
2023-11-30T12:50:05.171Z,19.5
2023-11-30T12:52:02.491Z,19.6
2023-11-30T12:54:03.877Z,19.8
2023-11-30T12:56:02.141Z,19.5
2023-11-30T12:58:02.954Z,19.8
2023-11-30T13:00:02.271Z,20.0
2023-11-30T13:02:03.093Z,19.9
2023-11-30T13:04:02.955Z,20.5
2023-11-30T13:06:02.629Z,20.3
2023-11-30T13:08:02.822Z,20.3
2023-11-30T13:10:02.412Z,20.6
2023-11-30T13:12:03.805Z,19.5
2023-11-30T13:14:03.094Z,20.0
2023-11-30T13:16:04.142Z,19.9
2023-11-30T13:18:02.145Z,19.9
2023-11-30T13:20:05.147Z,20.0
2023-11-30T13:22:02.470Z,21.2
2023-11-30T13:24:03.854Z,20.6
2023-11-30T13:26:02.223Z,20.1
2023-11-30T13:28:02.928Z,20.3
2023-11-30T13:30:02.756Z,20.4
2023-11-30T13:32:02.971Z,20.8
2023-11-30T13:34:02.327Z,20.0
2023-11-30T13:36:02.128Z,20.3
2023-11-30T13:38:02.498Z,19.7
2023-11-30T13:40:05.939Z,19.9
2023-11-30T13:42:02.213Z,19.9
2023-11-30T13:44:05.409Z,19.8
2023-11-30T13:46:04.883Z,20.1
2023-11-30T13:48:02.174Z,19.7
2023-11-30T13:50:03.018Z,19.3
2023-11-30T13:52:02.244Z,18.8
2023-11-30T13:54:02.151Z,19.4
2023-11-30T13:56:03.004Z,19.6
2023-11-30T13:58:02.609Z,19.0
2023-11-30T14:00:02.262Z,19.6
2023-11-30T14:02:02.647Z,18.9
2023-11-30T14:04:04.300Z,19.5
2023-11-30T14:06:02.104Z,18.7
2023-11-30T14:08:02.913Z,19.1
2023-11-30T14:10:07.354Z,18.9
2023-11-30T14:12:02.105Z,18.7
2023-11-30T14:14:02.178Z,19.2
2023-11-30T14:16:03.503Z,19.2
2023-11-30T14:18:02.243Z,19.1
2023-11-30T14:20:02.181Z,18.2
2023-11-30T14:22:03.511Z,18.9
2023-11-30T14:24:02.057Z,18.9
2023-11-30T14:26:02.874Z,19.3
2023-11-30T14:28:07.689Z,19.7
2023-11-30T14:30:04.829Z,19.4
2023-11-30T14:32:03.872Z,19.6
2023-11-30T14:34:02.546Z,19.3
2023-11-30T14:36:02.695Z,19.0
2023-11-30T14:38:02.183Z,19.5
2023-11-30T14:40:02.927Z,20.4
2023-11-30T14:42:02.541Z,19.8
2023-11-30T14:44:02.366Z,19.8
2023-11-30T14:46:03.046Z,19.6
2023-11-30T14:48:06.462Z,19.4
2023-11-30T14:50:02.144Z,19.4
2023-11-30T14:52:02.220Z,19.4
2023-11-30T14:54:04.620Z,18.5
2023-11-30T14:56:02.645Z,19.7
2023-11-30T14:58:04.051Z,18.7
2023-11-30T15:00:05.383Z,18.9
2023-11-30T15:02:02.396Z,19.2
2023-11-30T15:04:02.175Z,19.7
2023-11-30T15:06:02.108Z,19.1
2023-11-30T15:08:02.337Z,17.8
2023-11-30T15:10:04.657Z,17.9
2023-11-30T15:12:05.193Z,17.4
2023-11-30T15:14:03.512Z,18.3
2023-11-30T15:16:04.743Z,18.4
2023-11-30T15:18:02.074Z,17.7
2023-11-30T15:20:02.267Z,18.0
2023-11-30T15:22:02.544Z,18.6
2023-11-30T15:24:03.304Z,18.3
2023-11-30T15:26:02.113Z,17.3
2023-11-30T15:28:04.325Z,17.5
2023-11-30T15:30:02.433Z,18.8
2023-11-30T15:32:02.067Z,17.9
2023-11-30T15:34:02.366Z,17.6
2023-11-30T15:36:05.208Z,18.4
2023-11-30T15:38:03.353Z,18.6
2023-11-30T15:40:05.697Z,17.6
2023-11-30T15:42:02.889Z,17.7
2023-11-30T15:44:02.097Z,17.5
2023-11-30T15:46:05.166Z,17.5
2023-11-30T15:48:02.286Z,18.3
2023-11-30T15:50:02.184Z,18.6
2023-11-30T15:52:02.135Z,18.4
2023-11-30T15:54:02.611Z,18.6
2023-11-30T15:56:02.135Z,17.5
2023-11-30T15:58:02.292Z,18.8
2023-11-30T16:00:02.531Z,18.5
2023-11-30T16:02:02.189Z,18.4
2023-11-30T16:04:02.181Z,18.8
2023-11-30T16:06:02.231Z,18.8
2023-11-30T16:08:03.465Z,18.8
2023-11-30T16:10:03.603Z,18.5
2023-11-30T16:12:02.095Z,19.0
2023-11-30T16:14:02.106Z,17.8
2023-11-30T16:16:05.270Z,18.1
2023-11-30T16:18:02.576Z,18.6
2023-11-30T16:20:05.729Z,18.4
2023-11-30T16:22:03.349Z,17.8
2023-11-30T16:24:02.435Z,18.2
2023-11-30T16:26:02.634Z,17.8
2023-11-30T16:28:03.556Z,17.0
2023-11-30T16:30:02.292Z,18.1
2023-11-30T16:32:03.325Z,18.0
2023-11-30T16:34:02.910Z,17.9
2023-11-30T16:36:02.222Z,16.7
2023-11-30T16:38:03.421Z,17.4
2023-11-30T16:40:03.502Z,17.7
2023-11-30T16:42:02.114Z,16.5
2023-11-30T16:44:02.412Z,17.3
2023-11-30T16:46:02.681Z,17.3
2023-11-30T16:48:02.286Z,18.0
2023-11-30T16:50:03.908Z,18.6
2023-11-30T16:52:02.172Z,17.0
2023-11-30T16:54:03.364Z,17.4
2023-11-30T16:56:03.411Z,17.3
2023-11-30T16:58:04.054Z,17.0
2023-11-30T17:00:04.890Z,17.7
2023-11-30T17:02:02.222Z,17.5
2023-11-30T17:04:03.056Z,16.9
2023-11-30T17:06:02.490Z,16.3
2023-11-30T17:08:02.340Z,16.4
2023-11-30T17:10:02.880Z,16.3
2023-11-30T17:12:02.753Z,16.7
2023-11-30T17:14:02.671Z,16.7
2023-11-30T17:16:02.873Z,17.2
2023-11-30T17:18:02.884Z,16.9
2023-11-30T17:20:02.091Z,16.7
2023-11-30T17:22:02.854Z,17.6
2023-11-30T17:24:03.491Z,16.7
2023-11-30T17:26:02.157Z,16.0
2023-11-30T17:28:02.157Z,16.1
2023-11-30T17:30:02.646Z,15.4
2023-11-30T17:32:02.102Z,16.1
2023-11-30T17:34:04.011Z,16.4
2023-11-30T17:36:02.912Z,16.0
2023-11-30T17:38:02.350Z,16.8
2023-11-30T17:40:02.144Z,16.0
2023-11-30T17:42:02.485Z,15.8
2023-11-30T17:44:04.433Z,14.8
2023-11-30T17:46:03.377Z,13.1
2023-11-30T17:48:05.686Z,11.6
2023-11-30T17:50:04.695Z,13.2
2023-11-30T17:52:02.152Z,12.7
2023-11-30T17:54:02.758Z,13.5
2023-11-30T17:56:02.358Z,12.2
2023-11-30T17:58:02.644Z,13.7
2023-11-30T18:00:05.035Z,13.7
2023-11-30T18:02:02.316Z,11.7
2023-11-30T18:04:03.222Z,11.2
2023-11-30T18:06:03.493Z,13.2
2023-11-30T18:08:02.680Z,13.4
2023-11-30T18:10:04.728Z,12.3
2023-11-30T18:12:02.134Z,14.1
2023-11-30T18:14:02.621Z,13.3
2023-11-30T18:16:04.336Z,9.4
2023-11-30T18:18:02.639Z,10.3
2023-11-30T18:20:02.138Z,9.6
2023-11-30T18:22:02.611Z,9.1
2023-11-30T18:24:02.179Z,9.0
2023-11-30T18:26:02.267Z,9.1
2023-11-30T18:28:02.153Z,9.6
2023-11-30T18:30:02.758Z,9.2
2023-11-30T18:32:03.454Z,7.4
2023-11-30T18:34:02.367Z,7.3
2023-11-30T18:36:02.846Z,7.5
2023-11-30T18:38:03.863Z,8.6
2023-11-30T18:40:02.166Z,9.4
2023-11-30T18:42:02.141Z,8.8
2023-11-30T18:44:04.186Z,8.6
2023-11-30T18:46:02.436Z,8.5
2023-11-30T18:48:02.707Z,9.8
2023-11-30T18:50:02.070Z,9.3
2023-11-30T18:52:02.192Z,8.0
2023-11-30T18:54:02.519Z,8.3
2023-11-30T18:56:04.738Z,7.5
2023-11-30T18:58:02.325Z,7.5
2023-11-30T19:00:04.502Z,8.6
2023-11-30T19:02:02.749Z,8.2
2023-11-30T19:04:02.117Z,7.5
2023-11-30T19:06:02.796Z,8.6
2023-11-30T19:08:04.123Z,6.5
2023-11-30T19:10:03.227Z,7.7
2023-11-30T19:12:03.729Z,8.0
2023-11-30T19:14:02.153Z,7.5
2023-11-30T19:16:02.706Z,9.0
2023-11-30T19:18:03.511Z,6.9
2023-11-30T19:20:05.938Z,7.2
2023-11-30T19:22:02.334Z,6.9
2023-11-30T19:24:02.689Z,7.5
2023-11-30T19:26:02.892Z,7.4
2023-11-30T19:28:02.119Z,7.4
2023-11-30T19:30:02.192Z,7.4
2023-11-30T19:32:02.084Z,8.7
2023-11-30T19:34:03.380Z,7.8
2023-11-30T19:36:02.129Z,7.2
2023-11-30T19:38:02.231Z,6.7
2023-11-30T19:40:03.005Z,6.5
2023-11-30T19:42:02.158Z,6.3
2023-11-30T19:44:02.625Z,7.9
2023-11-30T19:46:03.587Z,7.5
2023-11-30T19:48:02.217Z,7.3
2023-11-30T19:50:02.669Z,7.6
2023-11-30T19:52:02.090Z,7.6
2023-11-30T19:54:03.874Z,9.4
2023-11-30T19:56:02.079Z,7.9
2023-11-30T19:58:02.319Z,8.2
2023-11-30T20:00:05.693Z,6.7
2023-11-30T20:02:03.415Z,6.6
2023-11-30T20:04:02.202Z,8.0
2023-11-30T20:06:02.777Z,7.7
2023-11-30T20:08:02.654Z,8.2
2023-11-30T20:10:02.317Z,7.6
2023-11-30T20:12:02.263Z,7.9
2023-11-30T20:14:02.159Z,8.1
2023-11-30T20:16:02.708Z,7.3
2023-11-30T20:18:02.409Z,7.3
2023-11-30T20:20:02.569Z,6.6
2023-11-30T20:22:02.333Z,7.8
2023-11-30T20:24:02.755Z,8.1
2023-11-30T20:26:02.164Z,8.2
2023-11-30T20:28:02.149Z,6.6
2023-11-30T20:30:02.104Z,7.5
2023-11-30T20:32:02.404Z,7.4
2023-11-30T20:34:03.693Z,7.5
2023-11-30T20:36:02.116Z,8.0
2023-11-30T20:38:02.186Z,8.1
2023-11-30T20:40:03.214Z,7.2
2023-11-30T20:42:03.573Z,8.2
2023-11-30T20:44:02.225Z,7.2
2023-11-30T20:46:02.402Z,8.0
2023-11-30T20:48:02.804Z,6.4
2023-11-30T20:50:02.915Z,9.7
2023-11-30T20:52:02.800Z,8.8
2023-11-30T20:54:07.444Z,7.3
2023-11-30T20:56:03.159Z,7.2
2023-11-30T20:58:02.693Z,6.8
2023-11-30T21:00:02.281Z,7.2
2023-11-30T21:02:02.789Z,7.9
2023-11-30T21:04:03.081Z,6.4
2023-11-30T21:06:02.314Z,9.3
2023-11-30T21:08:02.640Z,7.1
2023-11-30T21:10:03.201Z,8.0
2023-11-30T21:12:02.140Z,8.7
2023-11-30T21:14:02.136Z,7.4
2023-11-30T21:16:02.594Z,7.5
2023-11-30T21:18:02.150Z,8.5
2023-11-30T21:20:04.293Z,8.0
2023-11-30T21:22:04.202Z,6.3
2023-11-30T21:24:02.144Z,7.1
2023-11-30T21:26:02.085Z,7.1
2023-11-30T21:28:02.210Z,7.9
2023-11-30T21:30:02.133Z,11.4
2023-11-30T21:32:02.969Z,14.0
2023-11-30T21:34:02.402Z,14.7
2023-11-30T21:36:02.920Z,11.9
2023-11-30T21:38:02.678Z,10.9
2023-11-30T21:40:04.093Z,10.1
2023-11-30T21:42:03.277Z,10.8
2023-11-30T21:44:02.058Z,11.4
2023-11-30T21:46:02.823Z,8.7
2023-11-30T21:48:02.802Z,10.9
2023-11-30T21:50:14.867Z,9.4
2023-11-30T21:52:02.340Z,9.7
2023-11-30T21:54:02.254Z,10.0
2023-11-30T21:56:02.176Z,9.4
2023-11-30T21:58:03.490Z,10.5
2023-11-30T22:00:02.931Z,8.0
2023-11-30T22:02:02.314Z,8.8
2023-11-30T22:04:02.340Z,8.5
2023-11-30T22:06:02.174Z,9.9
2023-11-30T22:08:02.170Z,9.9
2023-11-30T22:10:03.488Z,8.8
2023-11-30T22:12:05.858Z,8.7
2023-11-30T22:14:02.091Z,9.0
2023-11-30T22:16:07.074Z,9.5
2023-11-30T22:18:04.111Z,10.4
2023-11-30T22:20:02.077Z,13.8
2023-11-30T22:22:02.474Z,9.4
2023-11-30T22:24:02.179Z,12.3
2023-11-30T22:26:04.603Z,8.9
2023-11-30T22:28:02.688Z,10.7
2023-11-30T22:30:02.145Z,9.8
2023-11-30T22:32:02.157Z,10.6
2023-11-30T22:34:03.046Z,11.2
2023-11-30T22:36:02.449Z,11.3
2023-11-30T22:38:02.120Z,11.1
2023-11-30T22:40:03.009Z,9.7
2023-11-30T22:42:02.160Z,8.9
2023-11-30T22:44:02.641Z,11.8
2023-11-30T22:46:02.455Z,8.1
2023-11-30T22:48:02.233Z,10.3
2023-11-30T22:50:04.376Z,9.2
2023-11-30T22:52:02.825Z,9.1
2023-11-30T22:54:02.213Z,8.0
2023-11-30T22:56:02.718Z,7.6
2023-11-30T22:58:02.755Z,9.0
2023-11-30T23:00:02.251Z,9.6
2023-11-30T23:02:02.505Z,11.1
2023-11-30T23:04:02.329Z,8.4
2023-11-30T23:06:02.168Z,8.8
2023-11-30T23:08:02.087Z,8.0
2023-11-30T23:10:02.323Z,8.0
2023-11-30T23:12:02.211Z,8.6
2023-11-30T23:14:03.041Z,9.9
2023-11-30T23:16:02.202Z,8.2
2023-11-30T23:18:02.178Z,7.9
2023-11-30T23:20:02.082Z,7.8
2023-11-30T23:22:02.529Z,8.1
2023-11-30T23:24:02.404Z,7.9
2023-11-30T23:26:02.160Z,8.2
2023-11-30T23:28:02.123Z,10.5
2023-11-30T23:30:03.681Z,7.8
2023-11-30T23:32:02.175Z,9.9
2023-11-30T23:34:02.319Z,8.4
2023-11-30T23:36:02.140Z,7.0
2023-11-30T23:38:02.715Z,8.5
2023-11-30T23:40:02.184Z,7.0
2023-11-30T23:42:02.122Z,10.5
2023-11-30T23:44:02.072Z,12.2
2023-11-30T23:46:03.583Z,16.0
2023-11-30T23:48:02.517Z,14.3
2023-11-30T23:50:02.106Z,15.6
2023-11-30T23:52:02.161Z,23.4
2023-11-30T23:54:02.736Z,27.6
2023-11-30T23:56:02.079Z,23.9
2023-11-30T23:58:02.999Z,25.5
